createdAt,value
2023-03-17T00:02:23.501Z,85.20
2023-03-17T00:04:50.217Z,85.00
2023-03-17T00:07:17.703Z,85.10
2023-03-17T00:09:45.766Z,85.00
2023-03-17T00:12:13.078Z,84.90
2023-03-17T00:14:39.829Z,85.60
2023-03-17T00:17:07.122Z,84.80
2023-03-17T00:19:35.044Z,84.70
2023-03-17T00:22:03.190Z,84.70
2023-03-17T00:24:31.277Z,84.50
2023-03-17T00:26:59.348Z,84.70
2023-03-17T00:29:26.052Z,84.70
2023-03-17T00:31:53.569Z,84.70
2023-03-17T00:34:20.282Z,84.70
2023-03-17T00:36:49.499Z,84.80
2023-03-17T00:41:42.638Z,84.30
2023-03-17T00:44:10.773Z,84.50
2023-03-17T00:46:37.798Z,84.60
2023-03-17T00:49:13.870Z,84.70
2023-03-17T00:51:40.596Z,84.50
2023-03-17T00:54:09.038Z,84.60
2023-03-17T00:56:37.648Z,84.60
2023-03-17T00:59:04.543Z,84.30
2023-03-17T01:01:32.626Z,84.40
2023-03-17T01:03:59.424Z,84.50
2023-03-17T01:06:26.153Z,84.40
2023-03-17T01:08:53.117Z,84.30
2023-03-17T01:11:20.553Z,84.40
2023-03-17T01:13:47.498Z,84.40
2023-03-17T01:16:14.831Z,84.40
2023-03-17T01:18:43.584Z,84.30
2023-03-17T01:21:11.500Z,84.00
2023-03-17T01:23:38.323Z,84.20
2023-03-17T01:26:05.704Z,84.20
2023-03-17T01:28:32.578Z,84.00
2023-03-17T01:30:59.562Z,84.20
2023-03-17T01:33:26.385Z,84.20
2023-03-17T01:35:54.756Z,84.20
2023-03-17T01:38:21.546Z,84.10
2023-03-17T01:40:50.955Z,84.20
2023-03-17T01:43:21.146Z,84.40
2023-03-17T01:46:24.926Z,84.30
2023-03-17T01:49:01.855Z,84.60
2023-03-17T01:51:33.475Z,84.60
2023-03-17T01:54:05.020Z,84.50
2023-03-17T01:56:32.165Z,84.60
2023-03-17T01:59:02.900Z,84.70
2023-03-17T02:01:36.582Z,84.70
2023-03-17T02:04:03.864Z,84.50
2023-03-17T02:06:32.345Z,84.70
2023-03-17T02:09:00.564Z,84.90
2023-03-17T02:11:28.355Z,84.80
2023-03-17T02:13:55.079Z,84.80
2023-03-17T02:16:22.176Z,85.10
2023-03-17T02:18:49.085Z,85.20
2023-03-17T02:21:36.860Z,85.80
2023-03-17T02:24:08.290Z,84.80
2023-03-17T02:26:36.513Z,84.80
2023-03-17T02:29:04.420Z,84.60
2023-03-17T02:31:31.226Z,85.30
2023-03-17T02:33:57.960Z,84.50
2023-03-17T02:36:25.021Z,84.50
2023-03-17T02:38:53.510Z,84.40
2023-03-17T02:41:20.250Z,84.50
2023-03-17T02:43:47.072Z,84.10
2023-03-17T02:46:14.056Z,84.20
2023-03-17T02:48:41.376Z,84.20
2023-03-17T02:51:08.097Z,84.40
2023-03-17T02:53:35.013Z,84.30
2023-03-17T02:56:04.011Z,84.30
2023-03-17T02:58:30.751Z,84.20
2023-03-17T03:00:57.609Z,84.00
2023-03-17T03:03:24.401Z,84.10
2023-03-17T03:05:51.123Z,84.20
2023-03-17T03:08:17.844Z,84.10
2023-03-17T03:10:44.625Z,84.40
2023-03-17T03:13:12.716Z,84.20
2023-03-17T03:15:41.761Z,84.30
2023-03-17T03:18:08.748Z,84.60
2023-03-17T03:20:35.914Z,84.40
2023-03-17T03:23:02.756Z,84.30
2023-03-17T03:25:29.526Z,84.60
2023-03-17T03:27:56.257Z,84.40
2023-03-17T03:30:24.408Z,85.10
2023-03-17T03:32:51.184Z,84.40
2023-03-17T03:35:18.046Z,84.30
2023-03-17T03:37:44.764Z,84.10
2023-03-17T03:40:12.592Z,84.60
2023-03-17T03:42:39.341Z,84.50
2023-03-17T03:45:07.011Z,84.10
2023-03-17T03:47:35.309Z,84.70
2023-03-17T03:50:02.177Z,84.50
2023-03-17T03:52:28.958Z,84.80
2023-03-17T03:54:55.800Z,84.80
2023-03-17T03:57:22.551Z,84.60
2023-03-17T03:59:49.318Z,84.50
2023-03-17T04:02:16.069Z,84.50
2023-03-17T04:04:45.031Z,84.70
2023-03-17T04:07:11.878Z,84.90
2023-03-17T04:09:38.834Z,84.70
2023-03-17T04:12:06.569Z,84.80
2023-03-17T04:14:33.666Z,84.70
2023-03-17T04:17:00.440Z,84.70
2023-03-17T04:19:27.224Z,84.40
2023-03-17T04:21:55.426Z,84.40
2023-03-17T04:24:22.194Z,84.50
2023-03-17T04:26:48.905Z,84.50
2023-03-17T04:29:15.651Z,84.50
2023-03-17T04:31:42.493Z,84.50
2023-03-17T04:34:14.063Z,84.40
2023-03-17T04:36:40.807Z,84.30
2023-03-17T04:39:09.032Z,84.10
2023-03-17T04:41:35.758Z,84.40
2023-03-17T04:44:02.747Z,84.30
2023-03-17T04:46:29.619Z,84.20
2023-03-17T04:48:56.582Z,84.40
2023-03-17T04:51:23.354Z,84.30
2023-03-17T04:53:50.760Z,84.10
2023-03-17T04:56:19.230Z,84.00
2023-03-17T04:58:45.963Z,84.20
2023-03-17T05:01:12.942Z,84.20
2023-03-17T05:03:39.697Z,84.10
2023-03-17T05:06:07.043Z,84.20
2023-03-17T05:08:33.783Z,84.30
2023-03-17T05:11:00.797Z,84.30
2023-03-17T05:13:28.991Z,84.40
2023-03-17T05:15:56.113Z,84.40
2023-03-17T05:18:25.006Z,84.20
2023-03-17T05:20:52.155Z,84.20
2023-03-17T05:23:19.146Z,84.40
2023-03-17T05:25:45.936Z,84.10
2023-03-17T05:28:12.693Z,84.20
2023-03-17T05:30:42.159Z,84.30
2023-03-17T05:33:08.975Z,84.50
2023-03-17T05:35:35.973Z,84.30
2023-03-17T05:38:02.745Z,84.50
2023-03-17T05:40:29.816Z,84.50
2023-03-17T05:42:56.721Z,84.40
2023-03-17T05:45:23.468Z,84.50
2023-03-17T05:47:51.678Z,84.80
2023-03-17T05:50:18.751Z,84.90
2023-03-17T05:52:45.553Z,84.60
2023-03-17T05:55:12.262Z,84.80
2023-03-17T05:57:39.080Z,84.80
2023-03-17T06:00:06.828Z,84.70
2023-03-17T06:02:33.908Z,84.80
2023-03-17T06:05:01.988Z,84.70
2023-03-17T06:07:38.169Z,84.80
2023-03-17T06:10:15.615Z,84.90
2023-03-17T06:12:42.367Z,84.90
2023-03-17T06:15:09.632Z,84.90
2023-03-17T06:17:36.681Z,85.20
2023-03-17T06:20:06.151Z,85.20
2023-03-17T06:22:32.957Z,85.30
2023-03-17T06:24:59.847Z,85.20
2023-03-17T06:27:26.728Z,84.90
2023-03-17T06:29:53.489Z,85.10
2023-03-17T06:32:21.032Z,85.10
2023-03-17T06:34:47.964Z,85.30
2023-03-17T06:37:16.015Z,85.20
2023-03-17T06:39:42.847Z,85.00
2023-03-17T06:42:09.843Z,85.00
2023-03-17T06:44:36.730Z,85.10
2023-03-17T06:47:03.688Z,85.10
2023-03-17T06:49:30.625Z,85.40
2023-03-17T06:51:57.368Z,85.70
2023-03-17T06:54:25.735Z,85.70
2023-03-17T06:56:53.054Z,85.40
2023-03-17T06:59:21.134Z,85.50
2023-03-17T07:01:48.249Z,85.20
2023-03-17T07:04:15.411Z,85.60
2023-03-17T07:06:42.288Z,84.20
2023-03-17T07:09:09.090Z,83.90
2023-03-17T07:11:37.221Z,83.60
2023-03-17T07:14:03.999Z,83.60
2023-03-17T07:16:30.830Z,83.50
2023-03-17T07:18:57.621Z,83.60
2023-03-17T07:21:24.498Z,83.50
2023-03-17T07:23:51.288Z,83.70
2023-03-17T07:26:18.190Z,83.60
2023-03-17T07:28:46.292Z,83.70
2023-03-17T07:31:13.171Z,83.80
2023-03-17T07:33:40.070Z,83.90
2023-03-17T07:36:07.901Z,83.80
2023-03-17T07:38:34.967Z,83.70
2023-03-17T07:41:01.769Z,84.60
2023-03-17T07:43:28.526Z,83.50
2023-03-17T07:45:56.645Z,83.80
2023-03-17T07:48:23.376Z,83.30
2023-03-17T07:50:50.110Z,83.30
2023-03-17T07:53:16.878Z,83.30
2023-03-17T07:55:43.685Z,83.30
2023-03-17T07:58:10.418Z,83.30
2023-03-17T08:00:37.215Z,83.20
2023-03-17T08:03:10.113Z,83.00
2023-03-17T08:05:37.348Z,83.00
2023-03-17T08:08:04.257Z,82.90
2023-03-17T08:10:31.409Z,82.90
2023-03-17T08:12:58.266Z,82.80
2023-03-17T08:15:24.998Z,82.90
2023-03-17T08:17:51.736Z,82.90
2023-03-17T08:20:20.149Z,82.80
2023-03-17T08:22:46.927Z,82.80
2023-03-17T08:25:19.679Z,82.90
2023-03-17T08:27:46.496Z,82.90
2023-03-17T08:30:13.677Z,83.00
2023-03-17T08:32:40.539Z,83.10
2023-03-17T08:35:07.850Z,83.10
2023-03-17T08:37:36.485Z,83.30
2023-03-17T08:40:03.509Z,83.40
2023-03-17T08:42:30.250Z,83.60
2023-03-17T08:44:57.148Z,83.60
2023-03-17T08:47:24.051Z,83.60
2023-03-17T08:49:50.778Z,83.90
2023-03-17T08:52:17.736Z,84.00
2023-03-17T08:54:45.864Z,84.10
2023-03-17T08:57:15.288Z,84.30
2023-03-17T08:59:42.535Z,84.30
2023-03-17T09:02:10.700Z,84.40
2023-03-17T09:04:40.007Z,84.70
2023-03-17T09:07:09.622Z,84.70
2023-03-17T09:09:37.099Z,84.90
2023-03-17T09:12:06.977Z,85.10
2023-03-17T09:14:42.897Z,85.20
2023-03-17T09:17:10.719Z,85.30
2023-03-17T09:19:37.467Z,85.50
2023-03-17T09:22:04.326Z,85.60
2023-03-17T09:24:31.059Z,86.60
2023-03-17T09:26:57.796Z,86.00
2023-03-17T09:29:25.960Z,86.40
2023-03-17T09:31:53.836Z,86.60
2023-03-17T09:34:20.579Z,86.60
2023-03-17T09:36:47.311Z,87.00
2023-03-17T09:39:14.073Z,87.40
2023-03-17T09:42:16.881Z,87.70
2023-03-17T09:45:01.616Z,88.00
2023-03-17T09:47:52.985Z,87.90
2023-03-17T09:50:24.785Z,88.10
2023-03-17T09:52:54.908Z,88.60
2023-03-17T09:55:27.213Z,88.80
2023-03-17T09:57:55.753Z,89.30
2023-03-17T10:00:25.896Z,89.30
2023-03-17T10:02:53.216Z,89.60
2023-03-17T10:05:22.639Z,90.20
2023-03-17T10:07:56.140Z,90.40
2023-03-17T10:10:29.853Z,90.40
2023-03-17T10:13:08.173Z,90.60
2023-03-17T10:15:43.865Z,90.30
2023-03-17T10:18:12.892Z,90.80
2023-03-17T10:20:50.470Z,91.00
2023-03-17T10:23:21.280Z,91.20
2023-03-17T10:25:48.027Z,91.30
2023-03-17T10:28:25.647Z,91.70
2023-03-17T10:30:54.248Z,91.60
2023-03-17T10:33:21.238Z,92.00
2023-03-17T10:35:48.091Z,92.10
2023-03-17T10:38:17.342Z,92.40
2023-03-17T10:40:47.179Z,92.50
2023-03-17T10:43:18.257Z,92.50
2023-03-17T10:45:55.075Z,92.90
2023-03-17T10:48:23.142Z,93.00
2023-03-17T10:50:49.966Z,93.30
2023-03-17T10:53:21.669Z,93.50
2023-03-17T10:55:50.307Z,93.70
2023-03-17T10:58:19.529Z,93.60
2023-03-17T11:00:55.556Z,93.70
2023-03-17T11:03:27.237Z,94.10
2023-03-17T11:06:01.343Z,94.00
2023-03-17T11:08:31.014Z,94.30
2023-03-17T11:10:57.736Z,94.70
2023-03-17T11:13:29.097Z,94.60
2023-03-17T11:16:08.242Z,95.00
2023-03-17T11:18:38.075Z,94.80
2023-03-17T11:21:09.497Z,95.20
2023-03-17T11:23:59.440Z,95.50
2023-03-17T11:26:45.623Z,95.70
2023-03-17T11:29:26.631Z,95.90
2023-03-17T11:32:00.813Z,96.00
2023-03-17T11:34:46.034Z,95.90
2023-03-17T11:37:25.617Z,96.60
2023-03-17T11:40:00.208Z,96.50
2023-03-17T11:42:31.422Z,97.00
2023-03-17T11:45:21.171Z,96.80
2023-03-17T11:48:06.200Z,97.10
2023-03-17T11:50:40.495Z,97.30
2023-03-17T11:53:19.696Z,97.50
2023-03-17T11:55:51.316Z,97.40
2023-03-17T11:58:28.821Z,97.50
2023-03-17T12:00:58.525Z,97.70
2023-03-17T12:03:31.538Z,98.00
2023-03-17T12:06:03.611Z,98.00
2023-03-17T12:08:37.560Z,98.00
2023-03-17T12:11:09.054Z,98.40
2023-03-17T12:13:38.843Z,98.00
2023-03-17T12:16:08.570Z,97.80
2023-03-17T12:18:39.790Z,98.20
2023-03-17T12:21:12.330Z,98.20
2023-03-17T12:23:52.357Z,98.20
2023-03-17T12:26:22.861Z,98.50
2023-03-17T12:28:56.187Z,98.50
2023-03-17T12:31:27.014Z,98.70
2023-03-17T12:33:59.676Z,98.70
2023-03-17T12:36:28.377Z,98.80
2023-03-17T12:39:00.218Z,99.00
2023-03-17T12:41:42.104Z,99.00
2023-03-17T12:44:20.143Z,99.40
2023-03-17T12:47:17.369Z,99.40
2023-03-17T12:50:25.892Z,99.50
2023-03-17T12:53:15.783Z,99.50
2023-03-17T12:55:46.363Z,99.50
2023-03-17T12:58:29.938Z,99.50
2023-03-17T13:01:05.709Z,99.60
2023-03-17T13:03:34.166Z,99.60
2023-03-17T13:06:03.073Z,99.70
2023-03-17T13:08:33.773Z,99.80
2023-03-17T13:11:18.511Z,99.70
2023-03-17T13:13:55.407Z,99.60
2023-03-17T13:16:33.735Z,99.70
2023-03-17T13:19:19.356Z,99.90
2023-03-17T13:21:50.809Z,99.90
2023-03-17T13:24:41.106Z,99.90
2023-03-17T13:27:12.482Z,99.90
2023-03-17T13:29:43.115Z,99.90
2023-03-17T13:32:37.634Z,99.90
2023-03-17T13:35:25.107Z,99.90
2023-03-17T13:38:23.613Z,99.90
2023-03-17T13:41:02.436Z,99.90
2023-03-17T13:43:58.146Z,99.90
2023-03-17T13:46:34.319Z,99.90
2023-03-17T13:49:03.291Z,99.90
2023-03-17T13:51:33.234Z,99.90
2023-03-17T13:54:08.449Z,99.90
2023-03-17T13:56:49.832Z,99.90
2023-03-17T13:59:18.351Z,99.90
2023-03-17T14:01:50.082Z,99.90
2023-03-17T14:04:20.335Z,99.90
2023-03-17T14:06:49.399Z,99.90
2023-03-17T14:09:34.022Z,99.90
2023-03-17T14:12:06.466Z,99.90
2023-03-17T14:14:41.059Z,99.90
2023-03-17T14:17:13.446Z,99.90
2023-03-17T14:19:40.430Z,99.90
2023-03-17T14:22:20.588Z,99.90
2023-03-17T14:24:51.837Z,99.90
2023-03-17T14:27:21.160Z,99.90
2023-03-17T14:29:48.108Z,99.90
2023-03-17T14:32:17.543Z,99.90
2023-03-17T14:34:45.100Z,99.90
2023-03-17T14:37:12.628Z,99.90
2023-03-17T14:39:44.909Z,99.90
2023-03-17T14:42:12.640Z,99.90
2023-03-17T14:44:42.209Z,99.90
2023-03-17T14:47:16.216Z,99.90
2023-03-17T14:49:43.179Z,99.90
2023-03-17T14:52:19.566Z,99.90
2023-03-17T14:54:50.888Z,99.90
2023-03-17T14:57:17.827Z,99.90
2023-03-17T14:59:56.476Z,99.90
2023-03-17T15:02:28.288Z,99.90
2023-03-17T15:04:58.578Z,99.90
2023-03-17T15:07:32.094Z,99.90
2023-03-17T15:09:59.634Z,99.90
2023-03-17T15:12:26.809Z,99.90
2023-03-17T15:14:58.497Z,99.90
2023-03-17T15:17:30.917Z,99.90
2023-03-17T15:20:01.689Z,99.90
2023-03-17T15:22:31.712Z,99.90
2023-03-17T15:25:01.219Z,99.90
2023-03-17T15:27:29.628Z,99.90
2023-03-17T15:29:57.948Z,99.90
2023-03-17T15:32:26.093Z,99.90
2023-03-17T15:34:54.688Z,99.90
2023-03-17T15:37:23.614Z,99.90
2023-03-17T15:39:51.229Z,99.90
2023-03-17T15:42:19.564Z,99.90
2023-03-17T15:44:46.355Z,99.90
2023-03-17T15:47:16.534Z,99.90
2023-03-17T15:49:43.372Z,99.90
2023-03-17T15:52:15.510Z,99.90
2023-03-17T15:54:42.283Z,99.90
2023-03-17T15:57:10.531Z,99.90
2023-03-17T15:59:37.362Z,99.90
2023-03-17T16:02:11.538Z,99.90
2023-03-17T16:04:39.518Z,99.90
2023-03-17T16:07:11.739Z,99.90
2023-03-17T16:09:38.512Z,99.90
2023-03-17T16:12:05.533Z,99.90
2023-03-17T16:14:32.270Z,99.90
2023-03-17T16:16:59.042Z,99.90
2023-03-17T16:19:25.826Z,99.90
2023-03-17T16:21:53.941Z,99.90
2023-03-17T16:24:23.034Z,99.90
2023-03-17T16:26:50.308Z,99.90
2023-03-17T16:29:18.190Z,99.90
2023-03-17T16:31:47.366Z,99.90
2023-03-17T16:34:15.754Z,99.90
2023-03-17T16:36:42.475Z,99.90
2023-03-17T16:39:15.763Z,99.90
2023-03-17T16:41:42.682Z,99.90
2023-03-17T16:44:11.688Z,99.90
2023-03-17T16:46:39.091Z,99.90
2023-03-17T16:49:06.406Z,99.90
2023-03-17T16:51:33.242Z,99.90
2023-03-17T16:54:00.001Z,99.90
2023-03-17T16:56:28.301Z,99.90
2023-03-17T16:58:55.244Z,99.90
2023-03-17T17:01:25.082Z,99.90
2023-03-17T17:03:52.356Z,99.90
2023-03-17T17:06:20.881Z,99.90
2023-03-17T17:08:48.728Z,99.90
2023-03-17T17:11:17.605Z,99.90
2023-03-17T17:13:47.163Z,99.90
2023-03-17T17:16:20.314Z,99.90
2023-03-17T17:18:47.151Z,99.90
2023-03-17T17:21:14.110Z,99.90
2023-03-17T17:23:40.868Z,99.90
2023-03-17T17:26:07.634Z,99.90
2023-03-17T17:28:34.385Z,99.90
2023-03-17T17:31:02.523Z,99.90
2023-03-17T17:33:29.256Z,99.90
2023-03-17T17:35:56.157Z,99.90
2023-03-17T17:38:24.941Z,99.90
2023-03-17T17:40:51.676Z,99.90
2023-03-17T17:43:18.507Z,99.90
2023-03-17T17:45:46.605Z,99.90
2023-03-17T17:48:15.046Z,99.90
2023-03-17T17:50:42.092Z,99.90
2023-03-17T17:53:09.155Z,99.90
2023-03-17T17:55:35.961Z,99.90
2023-03-17T17:58:03.038Z,99.90
2023-03-17T18:00:30.431Z,99.90
2023-03-17T18:02:57.328Z,99.90
2023-03-17T18:05:25.460Z,99.90
2023-03-17T18:07:52.212Z,99.90
2023-03-17T18:10:22.097Z,99.90
2023-03-17T18:12:48.881Z,99.90
2023-03-17T18:15:15.853Z,99.90
2023-03-17T18:17:43.101Z,99.90
2023-03-17T18:20:12.376Z,99.90
2023-03-17T18:22:41.007Z,99.90
2023-03-17T18:25:09.763Z,99.90
2023-03-17T18:27:37.074Z,99.90
2023-03-17T18:30:07.101Z,98.40
2023-03-17T18:32:34.168Z,99.10
2023-03-17T18:35:04.765Z,99.00
2023-03-17T18:37:32.075Z,98.70
2023-03-17T18:40:13.497Z,98.00
2023-03-17T18:42:42.040Z,96.60
2023-03-17T18:45:10.502Z,95.50
2023-03-17T18:47:37.557Z,95.00
2023-03-17T18:50:05.541Z,94.30
2023-03-17T18:52:32.325Z,94.80
2023-03-17T18:55:00.813Z,94.70
2023-03-17T18:57:27.941Z,94.30
2023-03-17T18:59:54.853Z,94.20
2023-03-17T19:02:22.461Z,93.70
2023-03-17T19:04:49.279Z,93.60
2023-03-17T19:07:16.600Z,93.40
2023-03-17T19:09:43.766Z,93.30
2023-03-17T19:12:11.921Z,93.30
2023-03-17T19:14:38.990Z,93.20
2023-03-17T19:17:06.024Z,92.50
2023-03-17T19:19:33.486Z,93.00
2023-03-17T19:22:00.472Z,92.30
2023-03-17T19:24:27.411Z,92.00
2023-03-17T19:26:54.249Z,92.30
2023-03-17T19:29:22.447Z,92.10
2023-03-17T19:31:49.294Z,91.20
2023-03-17T19:34:16.228Z,91.40
2023-03-17T19:36:44.542Z,91.30
2023-03-17T19:39:12.600Z,91.40
2023-03-17T19:41:39.327Z,91.30
2023-03-17T19:44:06.507Z,91.70
2023-03-17T19:46:35.064Z,92.20
2023-03-17T19:49:02.044Z,92.00
2023-03-17T19:51:29.340Z,92.30
2023-03-17T19:53:56.287Z,91.80
2023-03-17T19:56:23.262Z,91.80
2023-03-17T19:58:50.048Z,92.00
2023-03-17T20:01:17.186Z,91.70
2023-03-17T20:03:45.528Z,91.80
2023-03-17T20:06:13.062Z,92.10
2023-03-17T20:08:40.233Z,91.80
2023-03-17T20:11:07.595Z,91.80
2023-03-17T20:13:38.503Z,91.30
2023-03-17T20:16:09.632Z,91.30
2023-03-17T20:18:40.067Z,91.30
2023-03-17T20:21:15.418Z,91.30
2023-03-17T20:23:43.084Z,91.00
2023-03-17T20:26:10.453Z,90.90
2023-03-17T20:28:37.189Z,91.20
2023-03-17T20:31:04.858Z,91.10
2023-03-17T20:33:32.572Z,91.10
2023-03-17T20:35:59.901Z,91.10
2023-03-17T20:38:28.255Z,91.10
2023-03-17T20:41:04.798Z,91.10
2023-03-17T20:43:31.663Z,91.00
2023-03-17T20:45:58.448Z,90.80
2023-03-17T20:48:25.590Z,90.80
2023-03-17T20:50:52.537Z,90.80
2023-03-17T20:53:19.668Z,90.80
2023-03-17T20:55:49.462Z,90.80
2023-03-17T20:58:16.676Z,90.60
2023-03-17T21:00:47.253Z,90.80
2023-03-17T21:03:14.538Z,90.70
2023-03-17T21:05:44.595Z,90.80
2023-03-17T21:08:17.590Z,91.20
2023-03-17T21:10:45.214Z,91.00
2023-03-17T21:13:16.627Z,90.80
2023-03-17T21:15:43.977Z,90.60
2023-03-17T21:18:13.580Z,90.60
2023-03-17T21:20:42.140Z,90.50
2023-03-17T21:23:09.622Z,90.20
2023-03-17T21:25:36.878Z,90.20
2023-03-17T21:28:04.576Z,90.20
2023-03-17T21:30:33.606Z,90.20
2023-03-17T21:33:03.420Z,90.20
2023-03-17T21:35:31.036Z,90.10
2023-03-17T21:37:59.597Z,90.40
2023-03-17T21:40:27.295Z,90.60
2023-03-17T21:42:56.619Z,90.50
2023-03-17T21:45:25.986Z,90.50
2023-03-17T21:47:54.893Z,90.70
2023-03-17T21:50:22.067Z,90.70
2023-03-17T21:52:49.352Z,90.80
2023-03-17T21:55:16.902Z,91.00
2023-03-17T21:57:44.478Z,90.80
2023-03-17T22:00:12.782Z,90.60
2023-03-17T22:02:41.630Z,90.30
2023-03-17T22:05:10.748Z,90.20
2023-03-17T22:07:39.286Z,90.00
2023-03-17T22:10:06.997Z,90.40
2023-03-17T22:12:34.387Z,90.50
2023-03-17T22:15:01.212Z,90.60
2023-03-17T22:17:27.965Z,90.80
2023-03-17T22:19:54.741Z,90.80
2023-03-17T22:22:23.349Z,90.50
2023-03-17T22:24:50.384Z,90.40
2023-03-17T22:27:18.126Z,90.40
2023-03-17T22:29:45.093Z,90.70
2023-03-17T22:32:11.990Z,91.00
2023-03-17T22:34:38.741Z,91.10
2023-03-17T22:37:05.900Z,91.30
2023-03-17T22:39:34.014Z,91.40
2023-03-17T22:42:00.933Z,91.10
2023-03-17T22:44:27.648Z,91.10
2023-03-17T22:46:54.469Z,91.00
2023-03-17T22:49:21.210Z,90.70
2023-03-17T22:51:47.933Z,90.70
2023-03-17T22:54:14.677Z,90.50
2023-03-17T22:56:42.803Z,90.50
2023-03-17T22:59:09.513Z,90.20
2023-03-17T23:01:36.421Z,90.10
2023-03-17T23:04:03.244Z,90.10
2023-03-17T23:06:30.028Z,90.20
2023-03-17T23:08:56.762Z,90.10
2023-03-17T23:11:25.593Z,89.60
2023-03-17T23:13:53.761Z,89.00
2023-03-17T23:16:21.034Z,89.30
2023-03-17T23:18:47.808Z,89.30
2023-03-17T23:21:20.928Z,89.80
2023-03-17T23:23:47.680Z,89.70
2023-03-17T23:26:14.397Z,89.10
2023-03-17T23:28:41.151Z,88.30
2023-03-17T23:31:09.266Z,88.60
2023-03-17T23:33:36.135Z,89.00
2023-03-17T23:36:03.375Z,89.00
2023-03-17T23:38:30.165Z,88.70
2023-03-17T23:40:57.428Z,88.40
2023-03-17T23:43:24.329Z,88.30
2023-03-17T23:45:52.438Z,88.70
2023-03-17T23:48:20.665Z,88.50
2023-03-17T23:50:50.415Z,88.60
2023-03-17T23:53:17.156Z,88.50
2023-03-17T23:55:44.046Z,88.70
2023-03-17T23:58:10.957Z,88.70
